Accueil
METAR-TAF:

METAR-TAF

Aéroports :

Aéroport international Saint-Gall-Altenrhein

Saint-Gall, Suisse

latitude: 47-29-06N, longitude: 009-33-43E, altitude: 398 m

Observation

Le bulletin a été fait il y a 22 minutes, à 21:50 UTC
Vent 11 kt de sud, variant entre sud/sud-est et sud/sud-ouest
Température 25°C
Humidité 47%
Pression 1018 hPa
Visibilité 10 km ou plus

METAR: LSZR 212150Z AUTO 18011KT 150V210 9999 NCD 25/13 Q1018

Heure: 00:12 (22:12 UTC)

Prévision

Le bulletin a été fait il y a 7 heures et 47 minutes, à 14:25 UTC
Prévision valable du 21 à 15 UTC au 21 à 24 UTC
Vent 7 kt de ouest
Visibilité 10 km ou plus
pas de nuages en-dessous de 1500 mètres et pas de cumulonimbus.
Probabilité 40% :
Temporairement
du 21 à 15 UTC au 21 à 19 UTC
Visibilité 10 km ou plus
Quelques nuages à une hauteur de 6000 ft, Cumulus congestus.

TAF: LSZR 211425Z 2115/2124 27007KT CAVOK PROB40 TEMPO 2115/2119 9999 FEW060TCU

Observations et prévisions météorologiques de plus de 4000 aéroports (messages METAR et TAF).

Les stations disponibles sont représentées par des disques jaunes et rouges sur la carte.

Passer la souris dessus pour voir le nom de la station.

Cliquer dessus pour voir les observations et prévisions météorologiques.

Pour changer de carte: cliquez sur les boutons verts avec une croix noire pour zoomer, sur le bouton vert avec un tiret pour effectuer un zoom arrière, ou sur les flèches vertes pour les cartes adjacentes.


METAR-TAF: